<?xml version="1.0" encoding="UTF-8" standalone="no" ?>
<gpx xmlns="http://www.topografix.com/GPX/1/1" xmlns:xsi="http://www.w3.org/2001/XMLSchema-instance" xsi:schemaLocation="http://www.topografix.com/GPX/1/1 http://www.topografix.com/GPX/1/1/gpx.xsd" version="1.1" creator="VisuGPX - https://www.visugpx.com">
  <metadata>
    <name>Sainté Trail Urbain 16km</name>
    <desc><![CDATA[Sainté Trail parcours du 16 km
dimanche 20 novembre départ 9h Zenith de Saint-Etienne]]></desc>
  </metadata>
  <trk>
    <name><![CDATA[OR-6457628--Saint-Étienne:stu15 ....  30 08]]></name>
    <trkseg>
      <trkpt lat="45.45352" lon="4.393">
        <ele>493</ele>
        <time>2016-11-14T10:56:03Z</time>
      </trkpt>
      <trkpt lat="45.45281" lon="4.39183">
        <ele>493</ele>
        <time>2016-11-14T10:58:03Z</time>
      </trkpt>
      <trkpt lat="45.45278" lon="4.39056">
        <ele>497</ele>
        <time>2016-11-14T11:00:03Z</time>
      </trkpt>
      <trkpt lat="45.45352" lon="4.39063">
        <ele>496</ele>
        <time>2016-11-14T11:02:03Z</time>
      </trkpt>
      <trkpt lat="45.45366" lon="4.38837">
        <ele>501</ele>
        <time>2016-11-14T11:04:03Z</time>
      </trkpt>
      <trkpt lat="45.45342" lon="4.38784">
        <ele>501</ele>
        <time>2016-11-14T11:06:03Z</time>
      </trkpt>
      <trkpt lat="45.45175" lon="4.38827">
        <ele>500</ele>
        <time>2016-11-14T11:08:03Z</time>
      </trkpt>
      <trkpt lat="45.45128" lon="4.38523">
        <ele>501</ele>
        <time>2016-11-14T11:10:03Z</time>
      </trkpt>
      <trkpt lat="45.44934" lon="4.38579">
        <ele>504</ele>
        <time>2016-11-14T11:12:03Z</time>
      </trkpt>
      <trkpt lat="45.44963" lon="4.38754">
        <ele>504</ele>
        <time>2016-11-14T11:14:03Z</time>
      </trkpt>
      <trkpt lat="45.44857" lon="4.38783">
        <ele>504</ele>
        <time>2016-11-14T11:16:03Z</time>
      </trkpt>
      <trkpt lat="45.44857" lon="4.38818">
        <ele>504</ele>
        <time>2016-11-14T11:18:03Z</time>
      </trkpt>
      <trkpt lat="45.44792" lon="4.38837">
        <ele>504</ele>
        <time>2016-11-14T11:20:03Z</time>
      </trkpt>
      <trkpt lat="45.44711" lon="4.38776">
        <ele>508</ele>
        <time>2016-11-14T11:22:03Z</time>
      </trkpt>
      <trkpt lat="45.44703" lon="4.38775">
        <ele>509</ele>
        <time>2016-11-14T11:24:03Z</time>
      </trkpt>
      <trkpt lat="45.44652" lon="4.3879">
        <ele>514</ele>
        <time>2016-11-14T11:26:03Z</time>
      </trkpt>
      <trkpt lat="45.44624" lon="4.38791">
        <ele>518</ele>
        <time>2016-11-14T11:28:03Z</time>
      </trkpt>
      <trkpt lat="45.44597" lon="4.38803">
        <ele>522</ele>
        <time>2016-11-14T11:30:03Z</time>
      </trkpt>
      <trkpt lat="45.44562" lon="4.38822">
        <ele>527</ele>
        <time>2016-11-14T11:32:03Z</time>
      </trkpt>
      <trkpt lat="45.44557" lon="4.38855">
        <ele>529</ele>
        <time>2016-11-14T11:34:03Z</time>
      </trkpt>
      <trkpt lat="45.44487" lon="4.38915">
        <ele>545</ele>
        <time>2016-11-14T11:36:03Z</time>
      </trkpt>
      <trkpt lat="45.4445" lon="4.38946">
        <ele>549</ele>
        <time>2016-11-14T11:38:03Z</time>
      </trkpt>
      <trkpt lat="45.4437" lon="4.39008">
        <ele>557</ele>
        <time>2016-11-14T11:40:03Z</time>
      </trkpt>
      <trkpt lat="45.44348" lon="4.39024">
        <ele>557</ele>
        <time>2016-11-14T11:42:03Z</time>
      </trkpt>
      <trkpt lat="45.44299" lon="4.39062">
        <ele>555</ele>
        <time>2016-11-14T11:44:03Z</time>
      </trkpt>
      <trkpt lat="45.44261" lon="4.39092">
        <ele>554</ele>
        <time>2016-11-14T11:46:03Z</time>
      </trkpt>
      <trkpt lat="45.44254" lon="4.39073">
        <ele>551</ele>
        <time>2016-11-14T11:48:03Z</time>
      </trkpt>
      <trkpt lat="45.44252" lon="4.39048">
        <ele>548</ele>
        <time>2016-11-14T11:50:03Z</time>
      </trkpt>
      <trkpt lat="45.44247" lon="4.39012">
        <ele>544</ele>
        <time>2016-11-14T11:52:03Z</time>
      </trkpt>
      <trkpt lat="45.4424" lon="4.38957">
        <ele>535</ele>
        <time>2016-11-14T11:54:03Z</time>
      </trkpt>
      <trkpt lat="45.44247" lon="4.38952">
        <ele>535</ele>
        <time>2016-11-14T11:56:03Z</time>
      </trkpt>
      <trkpt lat="45.44249" lon="4.38942">
        <ele>533</ele>
        <time>2016-11-14T11:58:03Z</time>
      </trkpt>
      <trkpt lat="45.44248" lon="4.38933">
        <ele>532</ele>
        <time>2016-11-14T12:00:03Z</time>
      </trkpt>
      <trkpt lat="45.44239" lon="4.38928">
        <ele>530</ele>
        <time>2016-11-14T12:02:03Z</time>
      </trkpt>
      <trkpt lat="45.44236" lon="4.38928">
        <ele>530</ele>
        <time>2016-11-14T12:04:03Z</time>
      </trkpt>
      <trkpt lat="45.44229" lon="4.38896">
        <ele>526</ele>
        <time>2016-11-14T12:06:03Z</time>
      </trkpt>
      <trkpt lat="45.4422" lon="4.38831">
        <ele>520</ele>
        <time>2016-11-14T12:08:03Z</time>
      </trkpt>
      <trkpt lat="45.44212" lon="4.38776">
        <ele>519</ele>
        <time>2016-11-14T12:10:03Z</time>
      </trkpt>
      <trkpt lat="45.44203" lon="4.38713">
        <ele>518</ele>
        <time>2016-11-14T12:12:03Z</time>
      </trkpt>
      <trkpt lat="45.44147" lon="4.38723">
        <ele>518</ele>
        <time>2016-11-14T12:14:03Z</time>
      </trkpt>
      <trkpt lat="45.44086" lon="4.38739">
        <ele>520</ele>
        <time>2016-11-14T12:16:03Z</time>
      </trkpt>
      <trkpt lat="45.44052" lon="4.3875">
        <ele>523</ele>
        <time>2016-11-14T12:18:03Z</time>
      </trkpt>
      <trkpt lat="45.44003" lon="4.38767">
        <ele>527</ele>
        <time>2016-11-14T12:20:03Z</time>
      </trkpt>
      <trkpt lat="45.43969" lon="4.38773">
        <ele>526</ele>
        <time>2016-11-14T12:22:03Z</time>
      </trkpt>
      <trkpt lat="45.43927" lon="4.38788">
        <ele>524</ele>
        <time>2016-11-14T12:24:03Z</time>
      </trkpt>
      <trkpt lat="45.43865" lon="4.38803">
        <ele>525</ele>
        <time>2016-11-14T12:26:03Z</time>
      </trkpt>
      <trkpt lat="45.4385" lon="4.38812">
        <ele>525</ele>
        <time>2016-11-14T12:28:03Z</time>
      </trkpt>
      <trkpt lat="45.43847" lon="4.38821">
        <ele>525</ele>
        <time>2016-11-14T12:30:03Z</time>
      </trkpt>
      <trkpt lat="45.43797" lon="4.38881">
        <ele>527</ele>
        <time>2016-11-14T12:32:03Z</time>
      </trkpt>
      <trkpt lat="45.43796" lon="4.38885">
        <ele>527</ele>
        <time>2016-11-14T12:34:03Z</time>
      </trkpt>
      <trkpt lat="45.43805" lon="4.38944">
        <ele>528</ele>
        <time>2016-11-14T12:36:03Z</time>
      </trkpt>
      <trkpt lat="45.43746" lon="4.39033">
        <ele>528</ele>
        <time>2016-11-14T12:38:03Z</time>
      </trkpt>
      <trkpt lat="45.43711" lon="4.39085">
        <ele>530</ele>
        <time>2016-11-14T12:40:03Z</time>
      </trkpt>
      <trkpt lat="45.43662" lon="4.39114">
        <ele>529</ele>
        <time>2016-11-14T12:42:03Z</time>
      </trkpt>
      <trkpt lat="45.43647" lon="4.39124">
        <ele>529</ele>
        <time>2016-11-14T12:44:03Z</time>
      </trkpt>
      <trkpt lat="45.43639" lon="4.39122">
        <ele>529</ele>
        <time>2016-11-14T12:46:03Z</time>
      </trkpt>
      <trkpt lat="45.43612" lon="4.39135">
        <ele>529</ele>
        <time>2016-11-14T12:48:03Z</time>
      </trkpt>
      <trkpt lat="45.43586" lon="4.39146">
        <ele>529</ele>
        <time>2016-11-14T12:50:03Z</time>
      </trkpt>
      <trkpt lat="45.43582" lon="4.3912">
        <ele>528</ele>
        <time>2016-11-14T12:52:03Z</time>
      </trkpt>
      <trkpt lat="45.43574" lon="4.39078">
        <ele>528</ele>
        <time>2016-11-14T12:54:03Z</time>
      </trkpt>
      <trkpt lat="45.43565" lon="4.39032">
        <ele>528</ele>
        <time>2016-11-14T12:56:03Z</time>
      </trkpt>
      <trkpt lat="45.43485" lon="4.39073">
        <ele>530</ele>
        <time>2016-11-14T12:58:03Z</time>
      </trkpt>
      <trkpt lat="45.43479" lon="4.38964">
        <ele>529</ele>
        <time>2016-11-14T13:00:03Z</time>
      </trkpt>
      <trkpt lat="45.43473" lon="4.38842">
        <ele>531</ele>
        <time>2016-11-14T13:02:03Z</time>
      </trkpt>
      <trkpt lat="45.43469" lon="4.38774">
        <ele>531</ele>
        <time>2016-11-14T13:04:03Z</time>
      </trkpt>
      <trkpt lat="45.4346" lon="4.38702">
        <ele>540</ele>
        <time>2016-11-14T13:06:03Z</time>
      </trkpt>
      <trkpt lat="45.43427" lon="4.3872">
        <ele>540</ele>
        <time>2016-11-14T13:08:03Z</time>
      </trkpt>
      <trkpt lat="45.43389" lon="4.3872">
        <ele>544</ele>
        <time>2016-11-14T13:10:03Z</time>
      </trkpt>
      <trkpt lat="45.43281" lon="4.38744">
        <ele>546</ele>
        <time>2016-11-14T13:12:03Z</time>
      </trkpt>
      <trkpt lat="45.43266" lon="4.38728">
        <ele>550</ele>
        <time>2016-11-14T13:14:03Z</time>
      </trkpt>
      <trkpt lat="45.432" lon="4.38739">
        <ele>547</ele>
        <time>2016-11-14T13:16:03Z</time>
      </trkpt>
      <trkpt lat="45.43155" lon="4.38751">
        <ele>545</ele>
        <time>2016-11-14T13:18:03Z</time>
      </trkpt>
      <trkpt lat="45.43119" lon="4.38726">
        <ele>553</ele>
        <time>2016-11-14T13:20:03Z</time>
      </trkpt>
      <trkpt lat="45.43118" lon="4.38691">
        <ele>561</ele>
        <time>2016-11-14T13:22:03Z</time>
      </trkpt>
      <trkpt lat="45.43119" lon="4.38664">
        <ele>567</ele>
        <time>2016-11-14T13:24:03Z</time>
      </trkpt>
      <trkpt lat="45.43138" lon="4.3864">
        <ele>570</ele>
        <time>2016-11-14T13:26:03Z</time>
      </trkpt>
      <trkpt lat="45.43155" lon="4.38615">
        <ele>574</ele>
        <time>2016-11-14T13:28:03Z</time>
      </trkpt>
      <trkpt lat="45.43164" lon="4.38585">
        <ele>580</ele>
        <time>2016-11-14T13:30:03Z</time>
      </trkpt>
      <trkpt lat="45.43187" lon="4.38585">
        <ele>580</ele>
        <time>2016-11-14T13:32:03Z</time>
      </trkpt>
      <trkpt lat="45.43205" lon="4.38595">
        <ele>578</ele>
        <time>2016-11-14T13:34:03Z</time>
      </trkpt>
      <trkpt lat="45.43228" lon="4.38615">
        <ele>575</ele>
        <time>2016-11-14T13:36:03Z</time>
      </trkpt>
      <trkpt lat="45.43241" lon="4.38545">
        <ele>586</ele>
        <time>2016-11-14T13:38:03Z</time>
      </trkpt>
      <trkpt lat="45.43315" lon="4.38549">
        <ele>582</ele>
        <time>2016-11-14T13:40:03Z</time>
      </trkpt>
      <trkpt lat="45.4339" lon="4.38549">
        <ele>574</ele>
        <time>2016-11-14T13:42:03Z</time>
      </trkpt>
      <trkpt lat="45.43407" lon="4.38528">
        <ele>573</ele>
        <time>2016-11-14T13:44:03Z</time>
      </trkpt>
      <trkpt lat="45.43417" lon="4.38542">
        <ele>571</ele>
        <time>2016-11-14T13:46:03Z</time>
      </trkpt>
      <trkpt lat="45.43428" lon="4.38537">
        <ele>569</ele>
        <time>2016-11-14T13:48:03Z</time>
      </trkpt>
      <trkpt lat="45.43429" lon="4.38522">
        <ele>569</ele>
        <time>2016-11-14T13:50:03Z</time>
      </trkpt>
      <trkpt lat="45.4344" lon="4.38534">
        <ele>566</ele>
        <time>2016-11-14T13:52:03Z</time>
      </trkpt>
      <trkpt lat="45.43449" lon="4.38533">
        <ele>564</ele>
        <time>2016-11-14T13:54:03Z</time>
      </trkpt>
      <trkpt lat="45.43458" lon="4.38508">
        <ele>563</ele>
        <time>2016-11-14T13:56:03Z</time>
      </trkpt>
      <trkpt lat="45.43401" lon="4.38411">
        <ele>564</ele>
        <time>2016-11-14T13:58:03Z</time>
      </trkpt>
      <trkpt lat="45.43383" lon="4.38379">
        <ele>562</ele>
        <time>2016-11-14T14:00:03Z</time>
      </trkpt>
      <trkpt lat="45.43346" lon="4.38352">
        <ele>563</ele>
        <time>2016-11-14T14:02:03Z</time>
      </trkpt>
      <trkpt lat="45.43331" lon="4.38341">
        <ele>562</ele>
        <time>2016-11-14T14:04:03Z</time>
      </trkpt>
      <trkpt lat="45.43218" lon="4.38331">
        <ele>569</ele>
        <time>2016-11-14T14:06:03Z</time>
      </trkpt>
      <trkpt lat="45.43158" lon="4.38326">
        <ele>575</ele>
        <time>2016-11-14T14:08:03Z</time>
      </trkpt>
      <trkpt lat="45.43153" lon="4.38214">
        <ele>555</ele>
        <time>2016-11-14T14:10:03Z</time>
      </trkpt>
      <trkpt lat="45.43242" lon="4.38191">
        <ele>550</ele>
        <time>2016-11-14T14:12:03Z</time>
      </trkpt>
      <trkpt lat="45.43359" lon="4.38254">
        <ele>548</ele>
        <time>2016-11-14T14:14:03Z</time>
      </trkpt>
      <trkpt lat="45.43375" lon="4.38198">
        <ele>546</ele>
        <time>2016-11-14T14:16:03Z</time>
      </trkpt>
      <trkpt lat="45.43394" lon="4.3813">
        <ele>547</ele>
        <time>2016-11-14T14:18:03Z</time>
      </trkpt>
      <trkpt lat="45.43403" lon="4.38101">
        <ele>548</ele>
        <time>2016-11-14T14:20:03Z</time>
      </trkpt>
      <trkpt lat="45.43423" lon="4.38019">
        <ele>548</ele>
        <time>2016-11-14T14:22:03Z</time>
      </trkpt>
      <trkpt lat="45.43443" lon="4.38007">
        <ele>546</ele>
        <time>2016-11-14T14:24:03Z</time>
      </trkpt>
      <trkpt lat="45.43526" lon="4.38052">
        <ele>543</ele>
        <time>2016-11-14T14:26:03Z</time>
      </trkpt>
      <trkpt lat="45.43545" lon="4.37997">
        <ele>541</ele>
        <time>2016-11-14T14:28:03Z</time>
      </trkpt>
      <trkpt lat="45.43584" lon="4.37995">
        <ele>540</ele>
        <time>2016-11-14T14:30:03Z</time>
      </trkpt>
      <trkpt lat="45.43603" lon="4.38014">
        <ele>539</ele>
        <time>2016-11-14T14:32:03Z</time>
      </trkpt>
      <trkpt lat="45.43615" lon="4.38023">
        <ele>538</ele>
        <time>2016-11-14T14:34:03Z</time>
      </trkpt>
      <trkpt lat="45.4365" lon="4.38034">
        <ele>536</ele>
        <time>2016-11-14T14:36:03Z</time>
      </trkpt>
      <trkpt lat="45.43724" lon="4.3799">
        <ele>532</ele>
        <time>2016-11-14T14:38:03Z</time>
      </trkpt>
      <trkpt lat="45.43746" lon="4.38005">
        <ele>531</ele>
        <time>2016-11-14T14:40:03Z</time>
      </trkpt>
      <trkpt lat="45.43769" lon="4.38139">
        <ele>533</ele>
        <time>2016-11-14T14:42:03Z</time>
      </trkpt>
      <trkpt lat="45.43856" lon="4.38024">
        <ele>531</ele>
        <time>2016-11-14T14:44:03Z</time>
      </trkpt>
      <trkpt lat="45.43846" lon="4.3788">
        <ele>529</ele>
        <time>2016-11-14T14:46:03Z</time>
      </trkpt>
      <trkpt lat="45.43853" lon="4.37842">
        <ele>528</ele>
        <time>2016-11-14T14:48:03Z</time>
      </trkpt>
      <trkpt lat="45.43883" lon="4.37788">
        <ele>529</ele>
        <time>2016-11-14T14:50:03Z</time>
      </trkpt>
      <trkpt lat="45.43891" lon="4.37764">
        <ele>529</ele>
        <time>2016-11-14T14:52:03Z</time>
      </trkpt>
      <trkpt lat="45.43879" lon="4.37673">
        <ele>533</ele>
        <time>2016-11-14T14:54:03Z</time>
      </trkpt>
      <trkpt lat="45.43831" lon="4.37638">
        <ele>535</ele>
        <time>2016-11-14T14:56:03Z</time>
      </trkpt>
      <trkpt lat="45.43816" lon="4.37629">
        <ele>536</ele>
        <time>2016-11-14T14:58:03Z</time>
      </trkpt>
      <trkpt lat="45.43792" lon="4.37605">
        <ele>539</ele>
        <time>2016-11-14T15:00:03Z</time>
      </trkpt>
      <trkpt lat="45.43784" lon="4.37644">
        <ele>536</ele>
        <time>2016-11-14T15:02:03Z</time>
      </trkpt>
      <trkpt lat="45.43751" lon="4.37658">
        <ele>536</ele>
        <time>2016-11-14T15:04:03Z</time>
      </trkpt>
      <trkpt lat="45.43728" lon="4.37679">
        <ele>534</ele>
        <time>2016-11-14T15:06:03Z</time>
      </trkpt>
      <trkpt lat="45.43678" lon="4.37671">
        <ele>534</ele>
        <time>2016-11-14T15:08:03Z</time>
      </trkpt>
      <trkpt lat="45.43612" lon="4.37737">
        <ele>534</ele>
        <time>2016-11-14T15:10:03Z</time>
      </trkpt>
      <trkpt lat="45.43556" lon="4.37743">
        <ele>537</ele>
        <time>2016-11-14T15:12:03Z</time>
      </trkpt>
      <trkpt lat="45.43446" lon="4.37731">
        <ele>544</ele>
        <time>2016-11-14T15:14:03Z</time>
      </trkpt>
      <trkpt lat="45.43445" lon="4.37637">
        <ele>546</ele>
        <time>2016-11-14T15:16:03Z</time>
      </trkpt>
      <trkpt lat="45.43479" lon="4.37551">
        <ele>547</ele>
        <time>2016-11-14T15:18:03Z</time>
      </trkpt>
      <trkpt lat="45.43493" lon="4.37536">
        <ele>547</ele>
        <time>2016-11-14T15:20:03Z</time>
      </trkpt>
      <trkpt lat="45.43472" lon="4.37503">
        <ele>547</ele>
        <time>2016-11-14T15:22:03Z</time>
      </trkpt>
      <trkpt lat="45.43464" lon="4.37483">
        <ele>548</ele>
        <time>2016-11-14T15:24:03Z</time>
      </trkpt>
      <trkpt lat="45.4344" lon="4.37297">
        <ele>564</ele>
        <time>2016-11-14T15:26:03Z</time>
      </trkpt>
      <trkpt lat="45.43416" lon="4.37187">
        <ele>572</ele>
        <time>2016-11-14T15:28:03Z</time>
      </trkpt>
      <trkpt lat="45.4342" lon="4.37066">
        <ele>584</ele>
        <time>2016-11-14T15:30:03Z</time>
      </trkpt>
      <trkpt lat="45.43435" lon="4.37017">
        <ele>597</ele>
        <time>2016-11-14T15:32:03Z</time>
      </trkpt>
      <trkpt lat="45.43495" lon="4.37019">
        <ele>589</ele>
        <time>2016-11-14T15:34:03Z</time>
      </trkpt>
      <trkpt lat="45.43516" lon="4.37009">
        <ele>594</ele>
        <time>2016-11-14T15:36:03Z</time>
      </trkpt>
      <trkpt lat="45.43547" lon="4.37048">
        <ele>593</ele>
        <time>2016-11-14T15:38:03Z</time>
      </trkpt>
      <trkpt lat="45.43615" lon="4.3713">
        <ele>595</ele>
        <time>2016-11-14T15:40:03Z</time>
      </trkpt>
      <trkpt lat="45.43679" lon="4.37178">
        <ele>598</ele>
        <time>2016-11-14T15:42:03Z</time>
      </trkpt>
      <trkpt lat="45.43678" lon="4.37026">
        <ele>614</ele>
        <time>2016-11-14T15:44:03Z</time>
      </trkpt>
      <trkpt lat="45.43717" lon="4.37006">
        <ele>613</ele>
        <time>2016-11-14T15:46:03Z</time>
      </trkpt>
      <trkpt lat="45.43835" lon="4.3671">
        <ele>602</ele>
        <time>2016-11-14T15:48:03Z</time>
      </trkpt>
      <trkpt lat="45.43842" lon="4.36683">
        <ele>602</ele>
        <time>2016-11-14T15:50:03Z</time>
      </trkpt>
      <trkpt lat="45.4396" lon="4.3662">
        <ele>601</ele>
        <time>2016-11-14T15:52:03Z</time>
      </trkpt>
      <trkpt lat="45.44048" lon="4.3657">
        <ele>600</ele>
        <time>2016-11-14T15:54:03Z</time>
      </trkpt>
      <trkpt lat="45.44043" lon="4.36541">
        <ele>599</ele>
        <time>2016-11-14T15:56:03Z</time>
      </trkpt>
      <trkpt lat="45.44058" lon="4.36522">
        <ele>598</ele>
        <time>2016-11-14T15:58:03Z</time>
      </trkpt>
      <trkpt lat="45.44044" lon="4.36482">
        <ele>597</ele>
        <time>2016-11-14T16:00:03Z</time>
      </trkpt>
      <trkpt lat="45.44097" lon="4.36427">
        <ele>593</ele>
        <time>2016-11-14T16:02:03Z</time>
      </trkpt>
      <trkpt lat="45.44169" lon="4.36351">
        <ele>586</ele>
        <time>2016-11-14T16:04:03Z</time>
      </trkpt>
      <trkpt lat="45.44335" lon="4.36264">
        <ele>580</ele>
        <time>2016-11-14T16:06:03Z</time>
      </trkpt>
      <trkpt lat="45.44328" lon="4.36181">
        <ele>574</ele>
        <time>2016-11-14T16:08:03Z</time>
      </trkpt>
      <trkpt lat="45.44339" lon="4.3617">
        <ele>574</ele>
        <time>2016-11-14T16:10:03Z</time>
      </trkpt>
      <trkpt lat="45.44463" lon="4.36212">
        <ele>584</ele>
        <time>2016-11-14T16:12:03Z</time>
      </trkpt>
      <trkpt lat="45.44494" lon="4.36052">
        <ele>582</ele>
        <time>2016-11-14T16:14:03Z</time>
      </trkpt>
      <trkpt lat="45.44518" lon="4.36028">
        <ele>584</ele>
        <time>2016-11-14T16:16:03Z</time>
      </trkpt>
      <trkpt lat="45.44568" lon="4.35983">
        <ele>589</ele>
        <time>2016-11-14T16:18:03Z</time>
      </trkpt>
      <trkpt lat="45.44573" lon="4.35972">
        <ele>591</ele>
        <time>2016-11-14T16:20:03Z</time>
      </trkpt>
      <trkpt lat="45.44572" lon="4.35962">
        <ele>592</ele>
        <time>2016-11-14T16:22:03Z</time>
      </trkpt>
      <trkpt lat="45.446" lon="4.35908">
        <ele>601</ele>
        <time>2016-11-14T16:24:03Z</time>
      </trkpt>
      <trkpt lat="45.44637" lon="4.35826">
        <ele>619</ele>
        <time>2016-11-14T16:26:03Z</time>
      </trkpt>
      <trkpt lat="45.44661" lon="4.35821">
        <ele>620</ele>
        <time>2016-11-14T16:28:03Z</time>
      </trkpt>
      <trkpt lat="45.44692" lon="4.35845">
        <ele>620</ele>
        <time>2016-11-14T16:30:03Z</time>
      </trkpt>
      <trkpt lat="45.44741" lon="4.35938">
        <ele>614</ele>
        <time>2016-11-14T16:32:03Z</time>
      </trkpt>
      <trkpt lat="45.44766" lon="4.35996">
        <ele>609</ele>
        <time>2016-11-14T16:34:03Z</time>
      </trkpt>
      <trkpt lat="45.44778" lon="4.36011">
        <ele>608</ele>
        <time>2016-11-14T16:36:03Z</time>
      </trkpt>
      <trkpt lat="45.44771" lon="4.36018">
        <ele>606</ele>
        <time>2016-11-14T16:38:03Z</time>
      </trkpt>
      <trkpt lat="45.44739" lon="4.35997">
        <ele>606</ele>
        <time>2016-11-14T16:40:03Z</time>
      </trkpt>
      <trkpt lat="45.4473" lon="4.35981">
        <ele>606</ele>
        <time>2016-11-14T16:42:03Z</time>
      </trkpt>
      <trkpt lat="45.44725" lon="4.35996">
        <ele>603</ele>
        <time>2016-11-14T16:44:03Z</time>
      </trkpt>
      <trkpt lat="45.44739" lon="4.36099">
        <ele>594</ele>
        <time>2016-11-14T16:46:03Z</time>
      </trkpt>
      <trkpt lat="45.4472" lon="4.36124">
        <ele>591</ele>
        <time>2016-11-14T16:48:03Z</time>
      </trkpt>
      <trkpt lat="45.44736" lon="4.36217">
        <ele>584</ele>
        <time>2016-11-14T16:50:03Z</time>
      </trkpt>
      <trkpt lat="45.44766" lon="4.36265">
        <ele>583</ele>
        <time>2016-11-14T16:52:03Z</time>
      </trkpt>
      <trkpt lat="45.44757" lon="4.36292">
        <ele>585</ele>
        <time>2016-11-14T16:54:03Z</time>
      </trkpt>
      <trkpt lat="45.44663" lon="4.36273">
        <ele>587</ele>
        <time>2016-11-14T16:56:03Z</time>
      </trkpt>
      <trkpt lat="45.44604" lon="4.36321">
        <ele>584</ele>
        <time>2016-11-14T16:58:03Z</time>
      </trkpt>
      <trkpt lat="45.44511" lon="4.36519">
        <ele>576</ele>
        <time>2016-11-14T17:00:03Z</time>
      </trkpt>
      <trkpt lat="45.44496" lon="4.3655">
        <ele>575</ele>
        <time>2016-11-14T17:02:03Z</time>
      </trkpt>
      <trkpt lat="45.44494" lon="4.36572">
        <ele>574</ele>
        <time>2016-11-14T17:04:03Z</time>
      </trkpt>
      <trkpt lat="45.44488" lon="4.36586">
        <ele>573</ele>
        <time>2016-11-14T17:06:03Z</time>
      </trkpt>
      <trkpt lat="45.44509" lon="4.36613">
        <ele>575</ele>
        <time>2016-11-14T17:08:03Z</time>
      </trkpt>
      <trkpt lat="45.44519" lon="4.36626">
        <ele>575</ele>
        <time>2016-11-14T17:10:03Z</time>
      </trkpt>
      <trkpt lat="45.44527" lon="4.36644">
        <ele>576</ele>
        <time>2016-11-14T17:12:03Z</time>
      </trkpt>
      <trkpt lat="45.44517" lon="4.36732">
        <ele>574</ele>
        <time>2016-11-14T17:14:03Z</time>
      </trkpt>
      <trkpt lat="45.44506" lon="4.36805">
        <ele>570</ele>
        <time>2016-11-14T17:16:03Z</time>
      </trkpt>
      <trkpt lat="45.44502" lon="4.36859">
        <ele>567</ele>
        <time>2016-11-14T17:18:03Z</time>
      </trkpt>
      <trkpt lat="45.44476" lon="4.36895">
        <ele>564</ele>
        <time>2016-11-14T17:20:03Z</time>
      </trkpt>
      <trkpt lat="45.44404" lon="4.36975">
        <ele>558</ele>
        <time>2016-11-14T17:22:03Z</time>
      </trkpt>
      <trkpt lat="45.44442" lon="4.36955">
        <ele>560</ele>
        <time>2016-11-14T17:24:03Z</time>
      </trkpt>
      <trkpt lat="45.44488" lon="4.36921">
        <ele>563</ele>
        <time>2016-11-14T17:26:03Z</time>
      </trkpt>
      <trkpt lat="45.44492" lon="4.36921">
        <ele>563</ele>
        <time>2016-11-14T17:28:03Z</time>
      </trkpt>
      <trkpt lat="45.44535" lon="4.36946">
        <ele>560</ele>
        <time>2016-11-14T17:30:03Z</time>
      </trkpt>
      <trkpt lat="45.44572" lon="4.36968">
        <ele>555</ele>
        <time>2016-11-14T17:32:03Z</time>
      </trkpt>
      <trkpt lat="45.44598" lon="4.36988">
        <ele>553</ele>
        <time>2016-11-14T17:34:03Z</time>
      </trkpt>
      <trkpt lat="45.44641" lon="4.37011">
        <ele>554</ele>
        <time>2016-11-14T17:36:03Z</time>
      </trkpt>
      <trkpt lat="45.44683" lon="4.3704">
        <ele>559</ele>
        <time>2016-11-14T17:38:03Z</time>
      </trkpt>
      <trkpt lat="45.44698" lon="4.37035">
        <ele>561</ele>
        <time>2016-11-14T17:40:03Z</time>
      </trkpt>
      <trkpt lat="45.44714" lon="4.37046">
        <ele>563</ele>
        <time>2016-11-14T17:42:03Z</time>
      </trkpt>
      <trkpt lat="45.44711" lon="4.37086">
        <ele>564</ele>
        <time>2016-11-14T17:44:03Z</time>
      </trkpt>
      <trkpt lat="45.44784" lon="4.37128">
        <ele>584</ele>
        <time>2016-11-14T17:46:03Z</time>
      </trkpt>
      <trkpt lat="45.44911" lon="4.37222">
        <ele>629</ele>
        <time>2016-11-14T17:48:03Z</time>
      </trkpt>
      <trkpt lat="45.4495" lon="4.37122">
        <ele>629</ele>
        <time>2016-11-14T17:50:03Z</time>
      </trkpt>
      <trkpt lat="45.4496" lon="4.3718">
        <ele>634</ele>
        <time>2016-11-14T17:52:03Z</time>
      </trkpt>
      <trkpt lat="45.45121" lon="4.37217">
        <ele>635</ele>
        <time>2016-11-14T17:54:03Z</time>
      </trkpt>
      <trkpt lat="45.45127" lon="4.37236">
        <ele>635</ele>
        <time>2016-11-14T17:56:03Z</time>
      </trkpt>
      <trkpt lat="45.45131" lon="4.37257">
        <ele>635</ele>
        <time>2016-11-14T17:58:03Z</time>
      </trkpt>
      <trkpt lat="45.45135" lon="4.37277">
        <ele>634</ele>
        <time>2016-11-14T18:00:03Z</time>
      </trkpt>
      <trkpt lat="45.45159" lon="4.37313">
        <ele>632</ele>
        <time>2016-11-14T18:02:03Z</time>
      </trkpt>
      <trkpt lat="45.45204" lon="4.37293">
        <ele>628</ele>
        <time>2016-11-14T18:04:03Z</time>
      </trkpt>
      <trkpt lat="45.45263" lon="4.37278">
        <ele>621</ele>
        <time>2016-11-14T18:06:03Z</time>
      </trkpt>
      <trkpt lat="45.45334" lon="4.37294">
        <ele>611</ele>
        <time>2016-11-14T18:08:03Z</time>
      </trkpt>
      <trkpt lat="45.45465" lon="4.3727">
        <ele>588</ele>
        <time>2016-11-14T18:10:03Z</time>
      </trkpt>
      <trkpt lat="45.45511" lon="4.37284">
        <ele>578</ele>
        <time>2016-11-14T18:12:03Z</time>
      </trkpt>
      <trkpt lat="45.45509" lon="4.37343">
        <ele>575</ele>
        <time>2016-11-14T18:14:03Z</time>
      </trkpt>
      <trkpt lat="45.45499" lon="4.37448">
        <ele>567</ele>
        <time>2016-11-14T18:16:03Z</time>
      </trkpt>
      <trkpt lat="45.45546" lon="4.37485">
        <ele>555</ele>
        <time>2016-11-14T18:18:03Z</time>
      </trkpt>
      <trkpt lat="45.45584" lon="4.37505">
        <ele>548</ele>
        <time>2016-11-14T18:20:03Z</time>
      </trkpt>
      <trkpt lat="45.45638" lon="4.3753">
        <ele>545</ele>
        <time>2016-11-14T18:22:03Z</time>
      </trkpt>
      <trkpt lat="45.45813" lon="4.3754">
        <ele>550</ele>
        <time>2016-11-14T18:24:03Z</time>
      </trkpt>
      <trkpt lat="45.45801" lon="4.37454">
        <ele>542</ele>
        <time>2016-11-14T18:26:03Z</time>
      </trkpt>
      <trkpt lat="45.45869" lon="4.37445">
        <ele>543</ele>
        <time>2016-11-14T18:28:03Z</time>
      </trkpt>
      <trkpt lat="45.45926" lon="4.37475">
        <ele>548</ele>
        <time>2016-11-14T18:30:03Z</time>
      </trkpt>
      <trkpt lat="45.45955" lon="4.37522">
        <ele>551</ele>
        <time>2016-11-14T18:32:03Z</time>
      </trkpt>
      <trkpt lat="45.45991" lon="4.37606">
        <ele>547</ele>
        <time>2016-11-14T18:34:03Z</time>
      </trkpt>
      <trkpt lat="45.46065" lon="4.37606">
        <ele>545</ele>
        <time>2016-11-14T18:36:03Z</time>
      </trkpt>
      <trkpt lat="45.46087" lon="4.37641">
        <ele>539</ele>
        <time>2016-11-14T18:38:03Z</time>
      </trkpt>
      <trkpt lat="45.46128" lon="4.37648">
        <ele>534</ele>
        <time>2016-11-14T18:40:03Z</time>
      </trkpt>
      <trkpt lat="45.46083" lon="4.37747">
        <ele>523</ele>
        <time>2016-11-14T18:42:03Z</time>
      </trkpt>
      <trkpt lat="45.46113" lon="4.37792">
        <ele>512</ele>
        <time>2016-11-14T18:44:03Z</time>
      </trkpt>
      <trkpt lat="45.4616" lon="4.38111">
        <ele>490</ele>
        <time>2016-11-14T18:46:03Z</time>
      </trkpt>
      <trkpt lat="45.45965" lon="4.38166">
        <ele>496</ele>
        <time>2016-11-14T18:48:03Z</time>
      </trkpt>
      <trkpt lat="45.45936" lon="4.38187">
        <ele>497</ele>
        <time>2016-11-14T18:50:03Z</time>
      </trkpt>
      <trkpt lat="45.45921" lon="4.38256">
        <ele>495</ele>
        <time>2016-11-14T18:52:03Z</time>
      </trkpt>
      <trkpt lat="45.45957" lon="4.38548">
        <ele>490</ele>
        <time>2016-11-14T18:54:03Z</time>
      </trkpt>
      <trkpt lat="45.45997" lon="4.38574">
        <ele>488</ele>
        <time>2016-11-14T18:56:03Z</time>
      </trkpt>
      <trkpt lat="45.46137" lon="4.38778">
        <ele>487</ele>
        <time>2016-11-14T18:58:03Z</time>
      </trkpt>
      <trkpt lat="45.46161" lon="4.38859">
        <ele>488</ele>
        <time>2016-11-14T19:00:03Z</time>
      </trkpt>
      <trkpt lat="45.46174" lon="4.3901">
        <ele>488</ele>
        <time>2016-11-14T19:02:03Z</time>
      </trkpt>
      <trkpt lat="45.46133" lon="4.39006">
        <ele>491</ele>
        <time>2016-11-14T19:04:03Z</time>
      </trkpt>
      <trkpt lat="45.46136" lon="4.38978">
        <ele>491</ele>
        <time>2016-11-14T19:06:03Z</time>
      </trkpt>
      <trkpt lat="45.46035" lon="4.3895">
        <ele>492</ele>
        <time>2016-11-14T19:08:03Z</time>
      </trkpt>
      <trkpt lat="45.4583" lon="4.39044">
        <ele>493</ele>
        <time>2016-11-14T19:10:03Z</time>
      </trkpt>
      <trkpt lat="45.45766" lon="4.39031">
        <ele>494</ele>
        <time>2016-11-14T19:12:03Z</time>
      </trkpt>
      <trkpt lat="45.45718" lon="4.39038">
        <ele>494</ele>
        <time>2016-11-14T19:14:03Z</time>
      </trkpt>
      <trkpt lat="45.45659" lon="4.39131">
        <ele>494</ele>
        <time>2016-11-14T19:16:03Z</time>
      </trkpt>
      <trkpt lat="45.45608" lon="4.39179">
        <ele>496</ele>
        <time>2016-11-14T19:18:03Z</time>
      </trkpt>
      <trkpt lat="45.45502" lon="4.39198">
        <ele>495</ele>
        <time>2016-11-14T19:20:03Z</time>
      </trkpt>
      <trkpt lat="45.45228" lon="4.39287">
        <ele>494</ele>
        <time>2016-11-14T19:22:03Z</time>
      </trkpt>
      <trkpt lat="45.45212" lon="4.39309">
        <ele>494</ele>
        <time>2016-11-14T19:24:03Z</time>
      </trkpt>
      <trkpt lat="45.45212" lon="4.39331">
        <ele>494</ele>
        <time>2016-11-14T19:26:03Z</time>
      </trkpt>
      <trkpt lat="45.45212" lon="4.39355">
        <ele>494</ele>
        <time>2016-11-14T19:28:03Z</time>
      </trkpt>
      <trkpt lat="45.45145" lon="4.39373">
        <ele>494</ele>
        <time>2016-11-14T19:30:03Z</time>
      </trkpt>
      <trkpt lat="45.44955" lon="4.39429">
        <ele>493</ele>
        <time>2016-11-14T19:32:03Z</time>
      </trkpt>
    </trkseg>
  </trk>
</gpx>